Time,TemperatureF,DewpointF,PressureIn,WindDirection,WindDirectionDegrees,WindSpeedMPH,WindSpeedGustMPH,Humidity,HourlyPrecipIn,Conditions,Clouds,dailyrainin,SoftwareType,DateUTC
2013-02-10 00:10:00,14.1,5.0,27.63,SW,227,0.0,-999.0,67,-99.99,,,0.00,weatherlink.com 1.10,2013-02-10 05:10:00,
2013-02-10 00:25:00,14.0,5.0,27.16,NNW,348,0.0,-999.0,67,-99.99,,,0.00,weatherlink.com 1.10,2013-02-10 05:25:00,
2013-02-10 00:40:00,14.3,4.0,27.16,NNE,26,3.0,-999.0,64,-99.99,,,0.00,weatherlink.com 1.10,2013-02-10 05:40:00,
2013-02-10 00:55:00,14.4,4.0,26.48,SW,218,0.0,-999.0,64,-99.99,,,0.00,weatherlink.com 1.10,2013-02-10 05:55:00,
2013-02-10 01:10:00,13.9,5.0,26.63,WSW,238,0.0,-999.0,67,-99.99,,,0.00,weatherlink.com 1.10,2013-02-10 06:10:00,
2013-02-10 01:25:00,14.0,5.0,26.63,NW,308,0.0,-999.0,66,-99.99,,,0.00,weatherlink.com 1.10,2013-02-10 06:25:00,
2013-02-10 01:40:00,14.0,5.0,26.63,WNW,302,0.0,-999.0,66,-99.99,,,0.00,weatherlink.com 1.10,2013-02-10 06:40:00,
2013-02-10 01:55:00,14.1,4.0,26.87,NNW,327,1.0,-999.0,64,-99.99,,,0.00,weatherlink.com 1.10,2013-02-10 06:55:00,
2013-02-10 02:10:00,14.0,5.0,27.10,West,261,0.0,-999.0,66,-99.99,,,0.00,weatherlink.com 1.10,2013-02-10 07:10:00,
2013-02-10 02:25:00,14.1,5.0,28.02,NNW,336,0.0,-999.0,66,-99.99,,,0.00,weatherlink.com 1.10,2013-02-10 07:25:00,
2013-02-10 02:40:00,13.7,5.0,27.86,North,355,0.0,-999.0,67,-99.99,,,0.00,weatherlink.com 1.10,2013-02-10 07:40:00,
2013-02-10 02:55:00,12.5,4.0,28.31,SW,227,0.0,-999.0,68,-99.99,,,0.00,weatherlink.com 1.10,2013-02-10 07:55:00,
2013-02-10 03:10:00,11.6,4.0,28.31,SW,227,0.0,-999.0,70,-99.99,,,0.00,weatherlink.com 1.10,2013-02-10 08:10:00,
2013-02-10 03:25:00,10.7,3.0,28.25,SW,227,0.0,-999.0,70,-99.99,,,0.00,weatherlink.com 1.10,2013-02-10 08:25:00,
2013-02-10 03:40:00,9.3,2.0,28.25,SW,234,0.0,-999.0,72,-99.99,,,0.00,weatherlink.com 1.10,2013-02-10 08:40:00,
2013-02-10 03:55:00,8.6,2.0,28.25,SW,234,0.0,-999.0,73,-99.99,,,0.00,weatherlink.com 1.10,2013-02-10 08:55:00,
2013-02-10 04:10:00,8.1,2.0,28.25,SW,234,0.0,-999.0,75,-99.99,,,0.00,weatherlink.com 1.10,2013-02-10 09:10:00,
2013-02-10 04:25:00,7.5,1.0,28.25,SW,234,0.0,-999.0,74,-99.99,,,0.00,weatherlink.com 1.10,2013-02-10 09:25:00,
2013-02-10 04:40:00,6.3,0.0,29.05,SW,234,0.0,-999.0,75,-99.99,,,0.00,weatherlink.com 1.10,2013-02-10 09:40:00,
2013-02-10 04:55:00,5.0,-1.0,29.05,SW,234,0.0,-999.0,75,-99.99,,,0.00,weatherlink.com 1.10,2013-02-10 09:55:00,
2013-02-10 05:10:00,3.8,-2.0,27.94,SW,234,0.0,-999.0,76,-99.99,,,0.00,weatherlink.com 1.10,2013-02-10 10:10:00,
2013-02-10 05:25:00,2.8,-3.0,27.94,SW,234,0.0,-999.0,77,-99.99,,,0.00,weatherlink.com 1.10,2013-02-10 10:25:00,
2013-02-10 05:40:00,1.4,-4.0,27.14,SW,233,0.0,-999.0,77,-99.99,,,0.00,weatherlink.com 1.10,2013-02-10 10:40:00,
2013-02-10 05:54:00,0.8,-5.0,27.14,SW,234,0.0,-999.0,78,-99.99,,,0.00,weatherlink.com 1.10,2013-02-10 10:54:00,
2013-02-10 06:09:00,0.1,-5.0,27.14,SW,233,0.0,-999.0,80,-99.99,,,0.00,weatherlink.com 1.10,2013-02-10 11:09:00,
2013-02-10 06:24:00,-0.2,-5.0,28.41,SW,233,0.0,-999.0,80,-99.99,,,0.00,weatherlink.com 1.10,2013-02-10 11:24:00,
2013-02-10 06:39:00,-1.0,-6.0,28.41,SW,234,0.0,-999.0,80,-99.99,,,0.00,weatherlink.com 1.10,2013-02-10 11:39:00,
2013-02-10 06:55:00,-1.7,-6.0,28.41,SW,234,0.0,-999.0,80,-99.99,,,0.00,weatherlink.com 1.10,2013-02-10 11:55:00,
2013-02-10 07:10:00,-1.9,-7.0,28.41,SW,233,0.0,-999.0,80,-99.99,,,0.00,weatherlink.com 1.10,2013-02-10 12:10:00,
2013-02-10 07:25:00,-1.9,-6.0,27.89,SW,234,0.0,-999.0,81,-99.99,,,0.00,weatherlink.com 1.10,2013-02-10 12:25:00,
2013-02-10 07:40:00,-1.2,-5.0,28.87,SW,233,0.0,-999.0,82,-99.99,,,0.00,weatherlink.com 1.10,2013-02-10 12:40:00,
2013-02-10 07:55:00,-0.2,-4.0,28.70,SW,234,0.0,-999.0,82,-99.99,,,0.00,weatherlink.com 1.10,2013-02-10 12:55:00,
2013-02-10 08:10:00,0.8,-4.0,28.50,SW,233,0.0,-999.0,81,-99.99,,,0.00,weatherlink.com 1.10,2013-02-10 13:10:00,
2013-02-10 08:25:00,2.8,-2.0,28.60,SW,233,0.0,-999.0,80,-99.99,,,0.00,weatherlink.com 1.10,2013-02-10 13:25:00,
2013-02-10 08:40:00,5.9,1.0,28.60,SW,233,0.0,-999.0,79,-99.99,,,0.00,weatherlink.com 1.10,2013-02-10 13:40:00,
2013-02-10 08:55:00,10.1,4.0,28.60,SW,232,0.0,-999.0,77,-99.99,,,0.00,weatherlink.com 1.10,2013-02-10 13:55:00,
2013-02-10 09:10:00,13.4,6.0,28.60,WNW,294,0.0,-999.0,72,-99.99,,,0.00,weatherlink.com 1.10,2013-02-10 14:10:00,
2013-02-10 09:25:00,18.8,9.0,28.04,NNE,22,1.0,-999.0,67,-99.99,,,0.00,weatherlink.com 1.10,2013-02-10 14:25:00,
2013-02-10 09:40:00,21.8,9.0,28.59,North,355,0.0,-999.0,58,-99.99,,,0.00,weatherlink.com 1.10,2013-02-10 14:40:00,
2013-02-10 09:55:00,23.7,9.0,28.59,ENE,74,0.0,-999.0,53,-99.99,,,0.00,weatherlink.com 1.10,2013-02-10 14:55:00,
2013-02-10 10:10:00,25.5,10.0,27.09,North,350,2.0,-999.0,53,-99.99,,,0.00,weatherlink.com 1.10,2013-02-10 15:10:00,
2013-02-10 10:25:00,27.2,10.0,26.98,NNW,335,0.0,-999.0,49,-99.99,,,0.00,weatherlink.com 1.10,2013-02-10 15:25:00,
2013-02-10 10:40:00,28.5,9.0,25.39,NE,44,3.0,-999.0,44,-99.99,,,0.00,weatherlink.com 1.10,2013-02-10 15:40:00,
2013-02-10 10:55:00,29.3,9.0,23.30,WNW,298,0.0,-999.0,43,-99.99,,,0.00,weatherlink.com 1.10,2013-02-10 15:55:00,
2013-02-10 11:10:00,30.6,10.0,23.30,North,5,0.0,-999.0,43,-99.99,,,0.00,weatherlink.com 1.10,2013-02-10 16:10:00,
2013-02-10 11:25:00,31.8,11.0,23.30,NW,306,0.0,-999.0,42,-99.99,,,0.00,weatherlink.com 1.10,2013-02-10 16:25:00,
2013-02-10 11:40:00,31.7,10.0,23.30,NNW,344,2.0,-999.0,41,-99.99,,,0.01,weatherlink.com 1.10,2013-02-10 16:40:00,
2013-02-10 11:55:00,32.6,11.0,23.30,NW,318,0.0,-999.0,41,-99.99,,,0.01,weatherlink.com 1.10,2013-02-10 16:55:00,
2013-02-10 12:10:00,32.9,11.0,23.30,North,360,0.0,-999.0,41,-99.99,,,0.01,weatherlink.com 1.10,2013-02-10 17:10:00,
2013-02-10 12:25:00,33.0,14.0,23.30,NNW,346,0.0,-999.0,46,-99.99,,,0.02,weatherlink.com 1.10,2013-02-10 17:25:00,
2013-02-10 12:40:00,33.7,12.0,23.30,NNW,344,0.0,-999.0,40,-99.99,,,0.03,weatherlink.com 1.10,2013-02-10 17:40:00,
2013-02-10 12:55:00,34.4,12.0,23.30,North,10,0.0,-999.0,39,-99.99,,,0.03,weatherlink.com 1.10,2013-02-10 17:55:00,
2013-02-10 13:10:00,35.6,12.0,23.30,ENE,61,0.0,-999.0,38,-99.99,,,0.04,weatherlink.com 1.10,2013-02-10 18:10:00,
2013-02-10 13:25:00,35.7,15.0,23.30,North,350,0.0,-999.0,42,-99.99,,,0.04,weatherlink.com 1.10,2013-02-10 18:25:00,
2013-02-10 13:40:00,35.9,14.0,23.30,NW,313,0.0,-999.0,41,-99.99,,,0.05,weatherlink.com 1.10,2013-02-10 18:40:00,
2013-02-10 13:55:00,36.2,13.0,23.30,North,360,0.0,-999.0,38,-99.99,,,0.05,weatherlink.com 1.10,2013-02-10 18:55:00,
2013-02-10 14:10:00,36.8,11.0,23.30,WNW,288,0.0,-999.0,34,-99.99,,,0.06,weatherlink.com 1.10,2013-02-10 19:10:00,
2013-02-10 14:25:00,37.1,14.0,23.30,NNE,22,0.0,-999.0,39,-99.99,,,0.07,weatherlink.com 1.10,2013-02-10 19:25:00,
2013-02-10 14:40:00,37.4,12.0,23.30,NNW,342,0.0,-999.0,35,-99.99,,,0.07,weatherlink.com 1.10,2013-02-10 19:40:00,
2013-02-10 14:55:00,37.2,12.0,20.25,NNE,21,0.0,-999.0,36,-99.99,,,0.08,weatherlink.com 1.10,2013-02-10 19:55:00,
2013-02-10 15:10:00,37.3,12.0,20.25,North,350,0.0,-999.0,35,-99.99,,,0.08,weatherlink.com 1.10,2013-02-10 20:10:00,
2013-02-10 15:25:00,37.6,11.0,20.25,NNW,340,0.0,-999.0,33,-99.99,,,0.09,weatherlink.com 1.10,2013-02-10 20:25:00,
2013-02-10 15:40:00,37.2,12.0,20.25,West,275,0.0,-999.0,35,-99.99,,,0.09,weatherlink.com 1.10,2013-02-10 20:40:00,
2013-02-10 15:55:00,36.8,13.0,20.25,West,275,0.0,-999.0,38,-99.99,,,0.09,weatherlink.com 1.10,2013-02-10 20:55:00,
2013-02-10 16:10:00,36.1,9.0,20.25,West,279,0.0,-999.0,33,-99.99,,,0.09,weatherlink.com 1.10,2013-02-10 21:10:00,
2013-02-10 16:25:00,34.6,11.0,20.25,West,279,0.0,-999.0,37,-99.99,,,0.09,weatherlink.com 1.10,2013-02-10 21:25:00,
2013-02-10 16:40:00,34.3,10.0,20.25,West,279,0.0,-999.0,36,-99.99,,,0.09,weatherlink.com 1.10,2013-02-10 21:40:00,
2013-02-10 16:55:00,33.1,10.0,20.25,West,279,0.0,-999.0,38,-99.99,,,0.09,weatherlink.com 1.10,2013-02-10 21:55:00,
2013-02-10 17:10:00,31.7,10.0,20.25,West,279,0.0,-999.0,41,-99.99,,,0.09,weatherlink.com 1.10,2013-02-10 22:10:00,
2013-02-10 17:25:00,30.4,9.0,20.25,West,279,0.0,-999.0,41,-99.99,,,0.09,weatherlink.com 1.10,2013-02-10 22:25:00,
2013-02-10 17:40:00,28.5,11.0,20.25,West,279,0.0,-999.0,49,-99.99,,,0.09,weatherlink.com 1.10,2013-02-10 22:40:00,
2013-02-10 17:55:00,27.0,12.0,20.25,West,279,0.0,-999.0,54,-99.99,,,0.09,weatherlink.com 1.10,2013-02-10 22:55:00,
2013-02-10 18:10:00,25.7,10.0,20.25,West,279,0.0,-999.0,51,-99.99,,,0.09,weatherlink.com 1.10,2013-02-10 23:10:00,
2013-02-10 18:25:00,24.7,11.0,20.25,West,279,0.0,-999.0,57,-99.99,,,0.09,weatherlink.com 1.10,2013-02-10 23:25:00,
2013-02-10 18:40:00,24.1,10.0,20.25,West,279,0.0,-999.0,55,-99.99,,,0.09,weatherlink.com 1.10,2013-02-10 23:40:00,
2013-02-10 18:55:00,23.2,13.0,20.25,West,279,0.0,-999.0,64,-99.99,,,0.09,weatherlink.com 1.10,2013-02-10 23:55:00,
2013-02-10 19:10:00,22.5,10.0,20.25,West,279,0.0,-999.0,60,-99.99,,,0.09,weatherlink.com 1.10,2013-02-11 00:10:00,
2013-02-10 19:25:00,21.8,11.0,20.25,West,279,0.0,-999.0,62,-99.99,,,0.09,weatherlink.com 1.10,2013-02-11 00:25:00,
2013-02-10 19:40:00,21.1,10.0,20.25,West,279,0.0,-999.0,63,-99.99,,,0.09,weatherlink.com 1.10,2013-02-11 00:40:00,
2013-02-10 19:55:00,20.3,11.0,20.25,West,279,0.0,-999.0,67,-99.99,,,0.09,weatherlink.com 1.10,2013-02-11 00:55:00,
2013-02-10 20:10:00,19.7,11.0,20.25,West,279,0.0,-999.0,69,-99.99,,,0.09,weatherlink.com 1.10,2013-02-11 01:10:00,
2013-02-10 20:25:00,18.8,11.0,20.25,West,279,0.0,-999.0,70,-99.99,,,0.09,weatherlink.com 1.10,2013-02-11 01:25:00,
2013-02-10 20:40:00,18.4,9.0,20.25,West,279,0.0,-999.0,67,-99.99,,,0.00,weatherlink.com 1.10,2013-02-11 01:40:00,
2013-02-10 20:55:00,18.0,9.0,20.25,West,279,0.0,-999.0,69,-99.99,,,0.00,weatherlink.com 1.10,2013-02-11 01:55:00,
2013-02-10 21:10:00,17.2,9.0,20.25,West,279,0.0,-999.0,69,-99.99,,,0.00,weatherlink.com 1.10,2013-02-11 02:10:00,
2013-02-10 21:25:00,16.5,9.0,20.25,West,279,0.0,-999.0,71,-99.99,,,0.00,weatherlink.com 1.10,2013-02-11 02:25:00,
2013-02-10 21:40:00,15.8,8.0,20.25,West,279,0.0,-999.0,71,-99.99,,,0.00,weatherlink.com 1.10,2013-02-11 02:40:00,
2013-02-10 21:55:00,15.6,9.0,20.25,West,279,0.0,-999.0,75,-99.99,,,0.00,weatherlink.com 1.10,2013-02-11 02:55:00,
2013-02-10 22:10:00,15.1,7.0,20.25,West,279,0.0,-999.0,71,-99.99,,,0.00,weatherlink.com 1.10,2013-02-11 03:10:00,
2013-02-10 22:25:00,14.6,7.0,20.25,West,279,0.0,-999.0,71,-99.99,,,0.00,weatherlink.com 1.10,2013-02-11 03:25:00,
2013-02-10 22:40:00,13.9,6.0,20.25,West,279,0.0,-999.0,71,-99.99,,,0.00,weatherlink.com 1.10,2013-02-11 03:40:00,
2013-02-10 22:55:00,13.2,6.0,20.25,West,279,0.0,-999.0,72,-99.99,,,0.00,weatherlink.com 1.10,2013-02-11 03:55:00,
2013-02-10 23:10:00,12.8,6.0,20.25,West,279,0.0,-999.0,74,-99.99,,,0.00,weatherlink.com 1.10,2013-02-11 04:10:00,
2013-02-10 23:25:00,12.3,6.0,20.25,West,279,0.0,-999.0,74,-99.99,,,0.00,weatherlink.com 1.10,2013-02-11 04:25:00,
2013-02-10 23:40:00,11.8,6.0,20.25,West,279,0.0,-999.0,76,-99.99,,,0.00,weatherlink.com 1.10,2013-02-11 04:40:00,
2013-02-10 23:55:00,11.6,5.0,20.25,West,279,0.0,-999.0,76,-99.99,,,0.00,weatherlink.com 1.10,2013-02-11 04:55:00,